• Join FlightAware (Why Join?)
  • Login
  • US Flag 
04:13PM EDT


 

Airport Tracker/Info


-or-


 

Live Flight TrackerFlight Track Log ✈ N920AC ✈ 02-Nov-2013 ✈ KAPF - KAPF

Flight Track Log - Related Links

Times and Time Zones

All times are in EDT time to prevent confusion due to time zone crossing. See the N920AC flight status page for this flight to view local times or setup timezone preferences in your user account.

Time Position Orientation Groundspeed Altitude Reporting Facility
EDT Latitude Longitude Course Direction KTS MPH feet Rate Location/Type
12:53PM 26.1524 -81.7756 146° Southeast  Level Estimated
12:54PM 26.1472 -81.7718 146° Southeast  Level FlightAware Approximate
12:55PM 26.1420 -81.7679 146° Southeast  Level FlightAware Approximate
12:56PM 26.1368 -81.7641 146° Southeast  Level FlightAware Approximate
12:57PM 26.1316 -81.7602 146° Southeast  Level FlightAware Approximate
12:58PM 26.1263 -81.7563 146° Southeast  Level FlightAware Approximate
12:59PM 26.1316 -81.7602 156° South  Level Estimated
01:00PM 26.1261 -81.7568 150° Southeast  Level FlightAware Approximate
01:01PM 26.1207 -81.7533 150° Southeast  Level FlightAware Approximate
01:02PM 26.1152 -81.7499 150° Southeast  Level FlightAware Approximate
01:03PM 26.1098 -81.7464 150° Southeast  Level FlightAware Approximate
01:04PM 26.1043 -81.7430 150° Southeast  Level FlightAware Approximate
01:05PM 26.0989 -81.7396 150° Southeast  Level FlightAware Approximate
01:06PM 26.0934 -81.7361 150° Southeast  Level FlightAware Approximate
01:07PM 26.0880 -81.7327 150° Southeast  Level FlightAware Approximate
01:08PM 26.0825 -81.7292 150° Southeast  Level FlightAware Approximate
01:09PM 26.0771 -81.7258 150° Southeast  Level FlightAware Approximate
01:10PM 26.0716 -81.7224 150° Southeast  Level FlightAware Approximate
01:11PM 26.0770 -81.7259 318° Northwest  Level Estimated
01:12PM 26.0714 -81.7228 154° Southeast  Level FlightAware Approximate
01:13PM 26.0658 -81.7197 154° Southeast  Level FlightAware Approximate
01:14PM 26.0712 -81.7232 336° Northwest  Level Estimated
01:15PM 26.0674 -81.7177 128° Southeast  Level FlightAware Approximate
01:16PM 26.0636 -81.7122 127° Southeast  Level FlightAware Approximate
01:17PM 26.0674 -81.7177 307° West  Level FlightAware Approximate
01:18PM 26.0636 -81.7122 127° Southeast  Level FlightAware Approximate
01:19PM 26.0674 -81.7177 307° West  Level FlightAware Approximate
01:20PM 26.0636 -81.7122 127° Southeast  Level FlightAware Approximate
01:21PM 26.0674 -81.7177 307° West  Level FlightAware Approximate
01:22PM 26.0636 -81.7122 127° Southeast  Level FlightAware Approximate